sensor_id;sensor_type;location;lat;lon;timestamp;P1;durP1;ratioP1;P2;durP2;ratioP2
3735;SDS011;1883;48.202;16.310;2023-07-29T00:02:11;11.73;;;3.60;;
3735;SDS011;1883;48.202;16.310;2023-07-29T00:04:53;8.30;;;3.53;;
3735;SDS011;1883;48.202;16.310;2023-07-29T00:26:34;10.37;;;3.60;;
3735;SDS011;1883;48.202;16.310;2023-07-29T00:29:31;11.07;;;3.80;;
3735;SDS011;1883;48.202;16.310;2023-07-29T00:32:13;15.43;;;3.70;;
3735;SDS011;1883;48.202;16.310;2023-07-29T00:34:44;10.43;;;3.50;;
3735;SDS011;1883;48.202;16.310;2023-07-29T00:37:28;11.20;;;4.17;;
3735;SDS011;1883;48.202;16.310;2023-07-29T01:02:36;8.80;;;3.57;;
3735;SDS011;1883;48.202;16.310;2023-07-29T01:05:03;9.73;;;3.23;;
3735;SDS011;1883;48.202;16.310;2023-07-29T01:07:33;8.27;;;3.43;;
3735;SDS011;1883;48.202;16.310;2023-07-29T01:10:14;9.40;;;3.90;;
3735;SDS011;1883;48.202;16.310;2023-07-29T01:13:06;8.33;;;3.23;;
3735;SDS011;1883;48.202;16.310;2023-07-29T01:15:41;7.97;;;3.30;;
3735;SDS011;1883;48.202;16.310;2023-07-29T01:18:17;11.27;;;4.00;;
3735;SDS011;1883;48.202;16.310;2023-07-29T01:20:48;9.80;;;4.20;;
3735;SDS011;1883;48.202;16.310;2023-07-29T01:23:24;9.37;;;3.27;;
3735;SDS011;1883;48.202;16.310;2023-07-29T01:25:51;10.20;;;4.00;;
3735;SDS011;1883;48.202;16.310;2023-07-29T01:28:18;11.43;;;3.30;;
3735;SDS011;1883;48.202;16.310;2023-07-29T01:30:45;14.87;;;3.80;;
3735;SDS011;1883;48.202;16.310;2023-07-29T01:33:25;11.80;;;3.80;;
3735;SDS011;1883;48.202;16.310;2023-07-29T01:36:07;11.63;;;4.57;;
3735;SDS011;1883;48.202;16.310;2023-07-29T01:38:42;9.70;;;3.97;;
3735;SDS011;1883;48.202;16.310;2023-07-29T01:41:10;9.20;;;3.73;;
3735;SDS011;1883;48.202;16.310;2023-07-29T01:43:47;17.10;;;4.13;;
3735;SDS011;1883;48.202;16.310;2023-07-29T01:46:15;10.37;;;4.10;;
3735;SDS011;1883;48.202;16.310;2023-07-29T01:49:04;8.80;;;4.20;;
3735;SDS011;1883;48.202;16.310;2023-07-29T01:51:31;10.20;;;3.70;;
3735;SDS011;1883;48.202;16.310;2023-07-29T01:53:59;9.40;;;3.80;;
3735;SDS011;1883;48.202;16.310;2023-07-29T01:56:26;14.83;;;4.53;;
3735;SDS011;1883;48.202;16.310;2023-07-29T01:58:56;10.03;;;3.83;;
3735;SDS011;1883;48.202;16.310;2023-07-29T02:01:23;10.57;;;3.53;;
3735;SDS011;1883;48.202;16.310;2023-07-29T02:03:50;8.00;;;3.10;;
3735;SDS011;1883;48.202;16.310;2023-07-29T02:06:20;7.80;;;3.20;;
3735;SDS011;1883;48.202;16.310;2023-07-29T02:08:48;8.13;;;3.27;;
3735;SDS011;1883;48.202;16.310;2023-07-29T02:11:16;8.37;;;3.63;;
3735;SDS011;1883;48.202;16.310;2023-07-29T02:13:45;8.60;;;3.10;;
3735;SDS011;1883;48.202;16.310;2023-07-29T02:16:12;9.03;;;3.40;;
3735;SDS011;1883;48.202;16.310;2023-07-29T02:18:39;8.67;;;3.80;;
3735;SDS011;1883;48.202;16.310;2023-07-29T02:21:06;7.57;;;2.70;;
3735;SDS011;1883;48.202;16.310;2023-07-29T02:23:33;7.73;;;3.13;;
3735;SDS011;1883;48.202;16.310;2023-07-29T02:28:43;8.90;;;3.13;;
3735;SDS011;1883;48.202;16.310;2023-07-29T02:31:13;7.80;;;3.13;;
3735;SDS011;1883;48.202;16.310;2023-07-29T02:33:42;7.23;;;2.97;;
3735;SDS011;1883;48.202;16.310;2023-07-29T02:36:09;7.63;;;2.93;;
3735;SDS011;1883;48.202;16.310;2023-07-29T02:38:37;9.00;;;3.33;;
3735;SDS011;1883;48.202;16.310;2023-07-29T02:41:04;11.00;;;2.83;;
3735;SDS011;1883;48.202;16.310;2023-07-29T02:43:32;7.47;;;2.80;;
3735;SDS011;1883;48.202;16.310;2023-07-29T02:45:59;7.20;;;2.20;;
3735;SDS011;1883;48.202;16.310;2023-07-29T02:48:26;7.23;;;2.90;;
3735;SDS011;1883;48.202;16.310;2023-07-29T02:50:53;8.03;;;3.23;;
3735;SDS011;1883;48.202;16.310;2023-07-29T02:53:21;7.60;;;3.10;;
3735;SDS011;1883;48.202;16.310;2023-07-29T02:55:49;6.60;;;1.93;;
3735;SDS011;1883;48.202;16.310;2023-07-29T02:58:16;6.60;;;2.07;;
3735;SDS011;1883;48.202;16.310;2023-07-29T03:01:00;7.30;;;2.60;;
3735;SDS011;1883;48.202;16.310;2023-07-29T03:03:28;9.17;;;2.97;;
3735;SDS011;1883;48.202;16.310;2023-07-29T03:05:57;7.63;;;2.70;;
3735;SDS011;1883;48.202;16.310;2023-07-29T03:08:25;6.53;;;2.40;;
3735;SDS011;1883;48.202;16.310;2023-07-29T03:10:52;7.37;;;2.70;;
3735;SDS011;1883;48.202;16.310;2023-07-29T03:13:19;6.03;;;1.90;;
3735;SDS011;1883;48.202;16.310;2023-07-29T03:15:47;7.20;;;2.47;;
3735;SDS011;1883;48.202;16.310;2023-07-29T03:18:15;7.10;;;2.37;;
3735;SDS011;1883;48.202;16.310;2023-07-29T03:20:42;7.20;;;2.40;;
3735;SDS011;1883;48.202;16.310;2023-07-29T03:23:09;10.00;;;2.20;;
3735;SDS011;1883;48.202;16.310;2023-07-29T03:25:36;7.10;;;2.20;;
3735;SDS011;1883;48.202;16.310;2023-07-29T03:28:03;6.80;;;2.27;;
3735;SDS011;1883;48.202;16.310;2023-07-29T03:30:30;7.03;;;2.00;;
3735;SDS011;1883;48.202;16.310;2023-07-29T03:45:54;8.27;;;2.83;;
3735;SDS011;1883;48.202;16.310;2023-07-29T03:48:22;7.10;;;2.23;;
3735;SDS011;1883;48.202;16.310;2023-07-29T03:50:53;7.23;;;2.43;;
3735;SDS011;1883;48.202;16.310;2023-07-29T03:53:48;6.60;;;2.27;;
3735;SDS011;1883;48.202;16.310;2023-07-29T03:56:30;7.37;;;2.43;;
3735;SDS011;1883;48.202;16.310;2023-07-29T03:59:03;7.80;;;2.90;;
3735;SDS011;1883;48.202;16.310;2023-07-29T04:36:19;7.10;;;2.33;;
3735;SDS011;1883;48.202;16.310;2023-07-29T04:39:00;8.07;;;2.77;;
3735;SDS011;1883;48.202;16.310;2023-07-29T04:41:44;7.43;;;3.00;;
3735;SDS011;1883;48.202;16.310;2023-07-29T04:44:25;11.43;;;2.90;;
3735;SDS011;1883;48.202;16.310;2023-07-29T04:47:07;6.00;;;2.13;;
3735;SDS011;1883;48.202;16.310;2023-07-29T04:49:53;7.87;;;2.90;;
3735;SDS011;1883;48.202;16.310;2023-07-29T04:52:24;15.63;;;2.63;;
3735;SDS011;1883;48.202;16.310;2023-07-29T04:55:06;9.20;;;2.60;;
3735;SDS011;1883;48.202;16.310;2023-07-29T04:57:47;6.40;;;2.50;;
3735;SDS011;1883;48.202;16.310;2023-07-29T05:00:15;7.70;;;2.23;;
3735;SDS011;1883;48.202;16.310;2023-07-29T05:02:59;8.00;;;2.60;;
3735;SDS011;1883;48.202;16.310;2023-07-29T05:41:48;8.00;;;2.60;;
3735;SDS011;1883;48.202;16.310;2023-07-29T05:44:19;6.07;;;2.20;;
3735;SDS011;1883;48.202;16.310;2023-07-29T05:47:14;6.00;;;1.97;;
3735;SDS011;1883;48.202;16.310;2023-07-29T05:50:22;5.60;;;1.97;;
3735;SDS011;1883;48.202;16.310;2023-07-29T05:53:05;7.87;;;2.03;;
3735;SDS011;1883;48.202;16.310;2023-07-29T05:55:49;6.50;;;2.20;;
3735;SDS011;1883;48.202;16.310;2023-07-29T06:08:28;5.10;;;1.67;;
3735;SDS011;1883;48.202;16.310;2023-07-29T06:10:59;6.07;;;2.13;;
3735;SDS011;1883;48.202;16.310;2023-07-29T06:13:57;5.64;;;2.01;;
3735;SDS011;1883;48.202;16.310;2023-07-29T06:16:29;6.90;;;2.37;;
3735;SDS011;1883;48.202;16.310;2023-07-29T06:19:17;6.60;;;2.00;;
3735;SDS011;1883;48.202;16.310;2023-07-29T07:29:49;6.03;;;1.90;;
3735;SDS011;1883;48.202;16.310;2023-07-29T07:32:17;5.10;;;1.80;;
3735;SDS011;1883;48.202;16.310;2023-07-29T07:34:47;6.27;;;1.70;;
3735;SDS011;1883;48.202;16.310;2023-07-29T21:29:53;7.43;;;2.20;;
3735;SDS011;1883;48.202;16.310;2023-07-29T21:33:14;5.90;;;2.00;;
3735;SDS011;1883;48.202;16.310;2023-07-29T21:35:56;7.00;;;2.63;;
3735;SDS011;1883;48.202;16.310;2023-07-29T21:39:06;6.07;;;1.90;;
3735;SDS011;1883;48.202;16.310;2023-07-29T21:48:07;7.37;;;2.07;;
3735;SDS011;1883;48.202;16.310;2023-07-29T21:50:47;6.73;;;2.27;;
3735;SDS011;1883;48.202;16.310;2023-07-29T21:53:19;9.20;;;2.60;;
3735;SDS011;1883;48.202;16.310;2023-07-29T21:56:16;6.60;;;2.37;;
3735;SDS011;1883;48.202;16.310;2023-07-29T21:58:57;6.37;;;2.40;;
3735;SDS011;1883;48.202;16.310;2023-07-29T22:04:10;6.43;;;2.47;;
3735;SDS011;1883;48.202;16.310;2023-07-29T22:06:54;8.17;;;2.50;;
3735;SDS011;1883;48.202;16.310;2023-07-29T22:09:35;8.47;;;2.77;;
3735;SDS011;1883;48.202;16.310;2023-07-29T22:12:09;5.83;;;2.13;;
3735;SDS011;1883;48.202;16.310;2023-07-29T22:14:38;6.83;;;2.23;;
3735;SDS011;1883;48.202;16.310;2023-07-29T22:23:05;7.50;;;2.67;;
3735;SDS011;1883;48.202;16.310;2023-07-29T22:25:32;7.80;;;2.40;;
3735;SDS011;1883;48.202;16.310;2023-07-29T22:28:16;6.40;;;2.50;;
3735;SDS011;1883;48.202;16.310;2023-07-29T22:30:51;6.00;;;2.17;;
3735;SDS011;1883;48.202;16.310;2023-07-29T22:33:47;11.77;;;3.00;;
3735;SDS011;1883;48.202;16.310;2023-07-29T22:36:23;7.20;;;2.70;;
3735;SDS011;1883;48.202;16.310;2023-07-29T22:38:52;7.40;;;2.57;;
3735;SDS011;1883;48.202;16.310;2023-07-29T22:41:29;6.80;;;2.20;;
3735;SDS011;1883;48.202;16.310;2023-07-29T22:43:58;6.67;;;2.27;;
3735;SDS011;1883;48.202;16.310;2023-07-29T22:46:27;6.57;;;2.50;;
3735;SDS011;1883;48.202;16.310;2023-07-29T22:48:54;7.70;;;2.33;;
3735;SDS011;1883;48.202;16.310;2023-07-29T22:51:31;9.93;;;2.40;;
3735;SDS011;1883;48.202;16.310;2023-07-29T22:53:59;7.07;;;2.40;;
3735;SDS011;1883;48.202;16.310;2023-07-29T22:56:26;6.33;;;1.93;;
3735;SDS011;1883;48.202;16.310;2023-07-29T22:59:09;5.70;;;2.00;;
3735;SDS011;1883;48.202;16.310;2023-07-29T23:01:38;6.83;;;2.70;;
3735;SDS011;1883;48.202;16.310;2023-07-29T23:04:06;8.13;;;2.40;;
3735;SDS011;1883;48.202;16.310;2023-07-29T23:06:38;8.60;;;2.00;;
3735;SDS011;1883;48.202;16.310;2023-07-29T23:09:06;9.57;;;2.73;;
3735;SDS011;1883;48.202;16.310;2023-07-29T23:11:33;6.60;;;2.43;;
3735;SDS011;1883;48.202;16.310;2023-07-29T23:14:00;7.60;;;2.93;;
3735;SDS011;1883;48.202;16.310;2023-07-29T23:16:27;6.00;;;2.13;;
3735;SDS011;1883;48.202;16.310;2023-07-29T23:18:54;8.30;;;2.67;;
3735;SDS011;1883;48.202;16.310;2023-07-29T23:21:25;9.73;;;2.53;;
3735;SDS011;1883;48.202;16.310;2023-07-29T23:24:00;10.67;;;2.50;;
3735;SDS011;1883;48.202;16.310;2023-07-29T23:26:28;5.20;;;1.90;;
3735;SDS011;1883;48.202;16.310;2023-07-29T23:28:59;7.33;;;2.63;;
3735;SDS011;1883;48.202;16.310;2023-07-29T23:31:28;13.93;;;2.90;;
3735;SDS011;1883;48.202;16.310;2023-07-29T23:34:11;7.00;;;2.50;;
3735;SDS011;1883;48.202;16.310;2023-07-29T23:36:38;11.23;;;2.27;;
3735;SDS011;1883;48.202;16.310;2023-07-29T23:39:17;6.00;;;2.20;;
3735;SDS011;1883;48.202;16.310;2023-07-29T23:41:45;8.60;;;2.33;;
3735;SDS011;1883;48.202;16.310;2023-07-29T23:44:13;8.50;;;2.83;;
3735;SDS011;1883;48.202;16.310;2023-07-29T23:46:47;7.63;;;2.67;;
3735;SDS011;1883;48.202;16.310;2023-07-29T23:49:15;8.80;;;2.30;;
3735;SDS011;1883;48.202;16.310;2023-07-29T23:51:42;7.37;;;2.67;;
3735;SDS011;1883;48.202;16.310;2023-07-29T23:54:10;8.33;;;2.60;;
3735;SDS011;1883;48.202;16.310;2023-07-29T23:56:48;8.80;;;2.67;;
3735;SDS011;1883;48.202;16.310;2023-07-29T23:59:15;6.47;;;2.43;;
